Tomahawk, WI

7:57 PM CDT on August 16, 2017 (GMT -0500)
Tomahawk

Weather History for KTKV - January, 2012

Change the Weather History Date:

Saturday, January 7, 2012

  Actual Average (KRHI) Record (KRHI)
Temperature  
Mean Temperature 30 °F -  
Max Temperature 33 °F 17 °F 44 °F (1990)
Min Temperature 26 °F -2 °F -38 °F (1912)
Degree Days  
Heating Degree Days 36    
Moisture  
Dew Point 19 °F    
Average Humidity 67    
Maximum Humidity 87    
Minimum Humidity 55    
Precipitation  
Precipitation 0.00 in - - ()
Sea Level Pressure  
Sea Level Pressure 29.94 in    
Wind  
Wind Speed 10 mph (WNW)    
Max Wind Speed 16 mph    
Max Gust Speed 23 mph    
Visibility 10 miles    
Events Snow    
Averages and records for this station are not official NWS values.
T = Trace of Precipitation, MM = Missing Value Source: NWS Daily Summary

Daily Weather History Graph

Daily Weather History Graph

Search for Another Location

Airport or City:

Trip Planner

Search our weather history database for the weather conditions in past years. The results will help you decide how hot, cold, wet, or windy it might be!

Date:

Astronomy

Jan. 07, 2012 Rise Set
Actual Time 7:38 AM CST 4:32 PM CST
Civil Twilight 7:05 AM CST 5:05 PM CST
Nautical Twilight 6:27 AM CST 5:43 PM CST
Astronomical Twilight 5:52 AM CST 6:18 PM CST
Moon 3:15 PM CST (1/7) 6:11 AM CST (1/7)
Length of Visible Light 10h 00m
Length of Day
8h 53m
Waxing Gibbous, 97% of the Moon is Illuminated
Jan 7
Waxing Gibbous
Jan 9
Full
Jan 16
Last Quarter
Jan 23
New
Jan 30
First Quarter

Hourly Weather History & Observations

Time (CST) Temp. Windchill Dew Point Humidity Pressure Visibility Wind Dir Wind Speed Gust Speed Precip Events Conditions
12:15 AM 33.8 °F 26.4 °F 24.8 °F 70% 29.67 in 10.0 mi West 9.2 mph - N/A   Unknown
12:35 AM 32.0 °F 23.0 °F 26.6 °F 80% 29.68 in 10.0 mi West 11.5 mph 16.1 mph N/A   Unknown
12:55 AM 32.0 °F 22.1 °F 26.6 °F 80% 29.69 in 10.0 mi West 13.8 mph 19.6 mph N/A   Unknown
1:15 AM 32.0 °F 22.1 °F 26.6 °F 80% 29.70 in 10.0 mi WNW 13.8 mph 20.7 mph N/A   Unknown
1:35 AM 32.0 °F 22.5 °F 26.6 °F 80% 29.70 in 10.0 mi West 12.7 mph 21.9 mph N/A   Unknown
1:55 AM 32.0 °F 23.0 °F 28.4 °F 87% 29.71 in 5.0 mi WNW 11.5 mph 20.7 mph N/A Snow Light Snow
2:15 AM 32.0 °F 21.6 °F 28.4 °F 87% 29.73 in 10.0 mi West 15.0 mph 18.4 mph N/A   Unknown
2:35 AM 32.0 °F 25.6 °F 26.6 °F 80% 29.75 in 10.0 mi WNW 6.9 mph - N/A   Unknown
2:55 AM 32.0 °F 24.2 °F 24.8 °F 75% 29.76 in 10.0 mi NW 9.2 mph - N/A   Unknown
3:15 AM 30.2 °F 20.8 °F 23.0 °F 75% 29.77 in 10.0 mi NW 11.5 mph 20.7 mph N/A   Unknown
3:35 AM 30.2 °F 21.9 °F 21.2 °F 69% 29.77 in 10.0 mi NW 9.2 mph - N/A   Unknown
4:15 AM 30.2 °F 21.3 °F 21.2 °F 69% 29.80 in 10.0 mi NW 10.4 mph 18.4 mph N/A   Unknown
4:35 AM 30.2 °F 20.2 °F 21.2 °F 69% 29.81 in 10.0 mi NW 12.7 mph 17.3 mph N/A   Unknown
4:55 AM 30.2 °F 20.2 °F 21.2 °F 69% 29.82 in 10.0 mi WNW 12.7 mph 21.9 mph N/A   Unknown
5:15 AM 28.4 °F 17.5 °F 21.2 °F 74% 29.83 in 10.0 mi WNW 13.8 mph 20.7 mph N/A   Unknown
5:35 AM 28.4 °F 18.5 °F 19.4 °F 69% 29.84 in 10.0 mi NW 11.5 mph 23.0 mph N/A   Unknown
5:55 AM 28.4 °F 20.4 °F 19.4 °F 69% 29.85 in 10.0 mi WNW 8.1 mph - N/A   Unknown
6:15 AM 28.4 °F 20.4 °F 19.4 °F 69% 29.85 in 10.0 mi WNW 8.1 mph - N/A   Unknown
6:35 AM 28.4 °F 19.7 °F 19.4 °F 69% 29.86 in 10.0 mi WNW 9.2 mph - N/A   Unknown
6:55 AM 28.4 °F 18.0 °F 19.4 °F 69% 29.87 in 10.0 mi NW 12.7 mph 17.3 mph N/A   Unknown
7:15 AM 28.4 °F 17.5 °F 19.4 °F 69% 29.88 in 10.0 mi West 13.8 mph 19.6 mph N/A   Unknown
7:35 AM 28.4 °F 16.6 °F 19.4 °F 69% 29.89 in 10.0 mi NW 16.1 mph 21.9 mph N/A   Unknown
7:55 AM 28.4 °F 19.1 °F 19.4 °F 69% 29.90 in 10.0 mi WNW 10.4 mph - N/A   Unknown
8:15 AM 28.4 °F 19.1 °F 19.4 °F 69% 29.91 in 10.0 mi WNW 10.4 mph 16.1 mph N/A   Unknown
8:35 AM 26.6 °F 14.7 °F 17.6 °F 69% 29.92 in 10.0 mi WNW 15.0 mph 20.7 mph N/A   Unknown
9:15 AM 26.6 °F 15.7 °F 17.6 °F 69% 29.95 in 10.0 mi WNW 12.7 mph 20.7 mph N/A   Unknown
9:35 AM 26.6 °F 15.2 °F 17.6 °F 69% 29.95 in 10.0 mi WNW 13.8 mph 20.7 mph N/A   Unknown
9:55 AM 26.6 °F 16.2 °F 17.6 °F 69% 29.97 in 10.0 mi WNW 11.5 mph 18.4 mph N/A   Unknown
10:15 AM 26.6 °F 14.7 °F 17.6 °F 69% 29.98 in 10.0 mi WNW 15.0 mph 19.6 mph N/A   Unknown
10:35 AM 26.6 °F 17.5 °F 17.6 °F 69% 29.99 in 10.0 mi NW 9.2 mph - N/A   Unknown
11:35 AM 28.4 °F 20.4 °F 17.6 °F 64% 29.99 in 10.0 mi WNW 8.1 mph 17.3 mph N/A   Unknown
12:15 PM 28.4 °F 17.5 °F 17.6 °F 64% 30.00 in 10.0 mi NW 13.8 mph 18.4 mph N/A   Unknown
12:35 PM 30.2 °F 20.8 °F 17.6 °F 60% 30.00 in 10.0 mi WNW 11.5 mph 19.6 mph N/A   Unknown
12:55 PM 30.2 °F 22.6 °F 17.6 °F 60% 30.00 in 10.0 mi NW 8.1 mph - N/A   Unknown
1:15 PM 30.2 °F 20.2 °F 17.6 °F 60% 30.00 in 10.0 mi WNW 12.7 mph 18.4 mph N/A   Unknown
1:35 PM 30.2 °F 20.8 °F 17.6 °F 60% 30.01 in 10.0 mi WNW 11.5 mph - N/A   Unknown
1:55 PM 30.2 °F 23.4 °F 17.6 °F 60% 30.02 in 10.0 mi NW 6.9 mph - N/A   Unknown
2:15 PM 30.2 °F 21.3 °F 17.6 °F 60% 30.02 in 10.0 mi West 10.4 mph 16.1 mph N/A   Unknown
2:35 PM 30.2 °F 21.9 °F 17.6 °F 60% 30.03 in 10.0 mi NW 9.2 mph - N/A   Unknown
2:55 PM 30.2 °F 21.3 °F 17.6 °F 60% 30.04 in 10.0 mi NW 10.4 mph - N/A   Unknown
3:15 PM 30.2 °F 22.6 °F 17.6 °F 60% 30.05 in 10.0 mi NW 8.1 mph - N/A   Unknown
3:35 PM 30.2 °F 24.3 °F 17.6 °F 60% 30.06 in 10.0 mi NW 5.8 mph - N/A   Unknown
3:55 PM 30.2 °F 23.4 °F 15.8 °F 55% 30.06 in 10.0 mi NW 6.9 mph - N/A   Unknown
4:15 PM 30.2 °F 23.4 °F 15.8 °F 55% 30.07 in 10.0 mi WNW 6.9 mph - N/A   Unknown
4:35 PM 30.2 °F 26.7 °F 15.8 °F 55% 30.07 in 10.0 mi WNW 3.5 mph - N/A   Unknown
4:55 PM 28.4 °F 24.6 °F 15.8 °F 59% 30.08 in 10.0 mi WNW 3.5 mph - N/A   Unknown
5:15 PM 28.4 °F 21.2 °F 15.8 °F 59% 30.08 in 10.0 mi WNW 6.9 mph - N/A   Unknown
5:35 PM 28.4 °F 22.2 °F 15.8 °F 59% 30.09 in 10.0 mi WNW 5.8 mph - N/A   Unknown
5:55 PM 28.4 °F 23.3 °F 15.8 °F 59% 30.09 in 10.0 mi WNW 4.6 mph - N/A   Unknown
6:15 PM 28.4 °F 22.2 °F 15.8 °F 59% 30.10 in 10.0 mi West 5.8 mph - N/A   Unknown
6:35 PM 28.4 °F 22.2 °F 15.8 °F 59% 30.11 in 10.0 mi WNW 5.8 mph - N/A   Unknown
6:55 PM 28.4 °F 21.2 °F 15.8 °F 59% 30.11 in 10.0 mi West 6.9 mph - N/A   Unknown
7:15 PM 28.4 °F 22.2 °F 15.8 °F 59% 30.12 in 10.0 mi West 5.8 mph - N/A   Unknown
7:35 PM 28.4 °F 23.3 °F 17.6 °F 64% 30.13 in 10.0 mi West 4.6 mph - N/A   Unknown
7:55 PM 28.4 °F 22.2 °F 17.6 °F 64% 30.13 in 10.0 mi West 5.8 mph - N/A   Unknown
8:15 PM 28.4 °F 23.3 °F 17.6 °F 64% 30.13 in 10.0 mi West 4.6 mph - N/A   Unknown
8:35 PM 26.6 °F 21.2 °F 17.6 °F 69% 30.14 in 10.0 mi West 4.6 mph - N/A   Unknown
8:55 PM 26.6 °F - 17.6 °F 69% 30.14 in 10.0 mi Calm Calm - N/A   Unknown
9:15 PM 26.6 °F - 17.6 °F 69% 30.14 in 10.0 mi Calm Calm - N/A   Unknown
9:35 PM 24.8 °F - 17.6 °F 74% 30.15 in 10.0 mi Calm Calm - N/A   Unknown
9:55 PM 23.0 °F - 17.6 °F 80% 30.15 in 10.0 mi Calm Calm - N/A   Unknown
10:15 PM 21.2 °F - 17.6 °F 86% 30.16 in 10.0 mi Calm Calm - N/A   Unknown
10:35 PM 23.0 °F - 17.6 °F 80% 30.16 in 10.0 mi Calm Calm - N/A   Unknown
10:55 PM 23.0 °F - 17.6 °F 80% 30.15 in 10.0 mi Calm Calm - N/A   Unknown
11:15 PM 21.2 °F - 15.8 °F 80% 30.15 in 10.0 mi Calm Calm - N/A   Unknown
11:35 PM 21.2 °F - 17.6 °F 86% 30.16 in 10.0 mi Calm Calm - N/A   Unknown
11:55 PM 21.2 °F - 15.8 °F 80% 30.15 in 10.0 mi Calm Calm - N/A   Unknown